sensor_id;sensor_type;location;lat;lon;timestamp;P1;durP1;ratioP1;P2;durP2;ratioP2
51927;SDS011;37953;52.806;18.270;2023-08-20T00:01:58;23.25;;;15.85;;
51927;SDS011;37953;52.806;18.270;2023-08-20T00:04:30;22.27;;;15.75;;
51927;SDS011;37953;52.806;18.270;2023-08-20T00:07:00;21.92;;;14.45;;
51927;SDS011;37953;52.806;18.270;2023-08-20T00:09:28;39.67;;;16.45;;
51927;SDS011;37953;52.806;18.270;2023-08-20T00:11:54;22.42;;;14.05;;
51927;SDS011;37953;52.806;18.270;2023-08-20T00:14:21;16.73;;;12.85;;
51927;SDS011;37953;52.806;18.270;2023-08-20T00:17:20;18.73;;;12.68;;
51927;SDS011;37953;52.806;18.270;2023-08-20T00:19:47;17.02;;;12.05;;
51927;SDS011;37953;52.806;18.270;2023-08-20T00:22:14;19.90;;;11.60;;
51927;SDS011;37953;52.806;18.270;2023-08-20T00:24:42;17.63;;;12.20;;
51927;SDS011;37953;52.806;18.270;2023-08-20T00:27:08;17.92;;;12.55;;
51927;SDS011;37953;52.806;18.270;2023-08-20T00:29:34;15.55;;;11.40;;
51927;SDS011;37953;52.806;18.270;2023-08-20T00:32:00;22.55;;;12.80;;
51927;SDS011;37953;52.806;18.270;2023-08-20T00:34:26;18.33;;;12.82;;
51927;SDS011;37953;52.806;18.270;2023-08-20T00:36:52;18.33;;;13.15;;
51927;SDS011;37953;52.806;18.270;2023-08-20T00:39:18;18.92;;;12.55;;
51927;SDS011;37953;52.806;18.270;2023-08-20T00:41:44;18.60;;;12.70;;
51927;SDS011;37953;52.806;18.270;2023-08-20T00:44:10;18.75;;;12.65;;
51927;SDS011;37953;52.806;18.270;2023-08-20T00:46:36;21.52;;;13.07;;
51927;SDS011;37953;52.806;18.270;2023-08-20T00:49:02;18.63;;;13.02;;
51927;SDS011;37953;52.806;18.270;2023-08-20T00:51:28;18.92;;;12.63;;
51927;SDS011;37953;52.806;18.270;2023-08-20T00:53:58;14.85;;;11.73;;
51927;SDS011;37953;52.806;18.270;2023-08-20T00:56:25;16.75;;;12.23;;
51927;SDS011;37953;52.806;18.270;2023-08-20T00:58:52;17.85;;;12.43;;
51927;SDS011;37953;52.806;18.270;2023-08-20T01:01:20;18.67;;;12.82;;
51927;SDS011;37953;52.806;18.270;2023-08-20T01:03:47;16.27;;;12.23;;
51927;SDS011;37953;52.806;18.270;2023-08-20T01:06:19;17.25;;;12.38;;
51927;SDS011;37953;52.806;18.270;2023-08-20T01:09:19;17.50;;;12.55;;
51927;SDS011;37953;52.806;18.270;2023-08-20T01:11:55;16.38;;;12.77;;
51927;SDS011;37953;52.806;18.270;2023-08-20T01:14:24;22.27;;;12.90;;
51927;SDS011;37953;52.806;18.270;2023-08-20T01:16:50;24.85;;;14.27;;
51927;SDS011;37953;52.806;18.270;2023-08-20T01:19:17;19.85;;;14.05;;
51927;SDS011;37953;52.806;18.270;2023-08-20T01:21:53;23.27;;;14.23;;
51927;SDS011;37953;52.806;18.270;2023-08-20T01:30:12;20.10;;;15.00;;
51927;SDS011;37953;52.806;18.270;2023-08-20T01:32:38;20.05;;;13.88;;
51927;SDS011;37953;52.806;18.270;2023-08-20T01:35:15;20.35;;;14.38;;
51927;SDS011;37953;52.806;18.270;2023-08-20T01:37:42;21.48;;;13.85;;
51927;SDS011;37953;52.806;18.270;2023-08-20T01:40:08;20.92;;;13.75;;
51927;SDS011;37953;52.806;18.270;2023-08-20T01:42:36;23.10;;;14.52;;
51927;SDS011;37953;52.806;18.270;2023-08-20T01:45:06;19.85;;;14.32;;
51927;SDS011;37953;52.806;18.270;2023-08-20T01:47:32;20.67;;;13.93;;
51927;SDS011;37953;52.806;18.270;2023-08-20T01:50:05;18.40;;;14.25;;
51927;SDS011;37953;52.806;18.270;2023-08-20T01:52:31;17.13;;;13.68;;
51927;SDS011;37953;52.806;18.270;2023-08-20T01:54:57;19.52;;;14.38;;
51927;SDS011;37953;52.806;18.270;2023-08-20T01:57:23;21.80;;;15.38;;
51927;SDS011;37953;52.806;18.270;2023-08-20T01:59:49;22.33;;;14.60;;
51927;SDS011;37953;52.806;18.270;2023-08-20T02:02:15;18.73;;;13.30;;
51927;SDS011;37953;52.806;18.270;2023-08-20T02:04:41;22.02;;;14.20;;
51927;SDS011;37953;52.806;18.270;2023-08-20T02:07:07;19.15;;;14.77;;
51927;SDS011;37953;52.806;18.270;2023-08-20T02:09:33;21.75;;;13.25;;
51927;SDS011;37953;52.806;18.270;2023-08-20T02:11:59;17.25;;;13.30;;
51927;SDS011;37953;52.806;18.270;2023-08-20T02:14:25;20.63;;;13.77;;
51927;SDS011;37953;52.806;18.270;2023-08-20T02:16:54;19.48;;;13.38;;
51927;SDS011;37953;52.806;18.270;2023-08-20T02:19:20;16.63;;;12.80;;
51927;SDS011;37953;52.806;18.270;2023-08-20T02:21:46;18.02;;;12.27;;
51927;SDS011;37953;52.806;18.270;2023-08-20T02:24:12;17.52;;;12.50;;
51927;SDS011;37953;52.806;18.270;2023-08-20T02:26:38;19.27;;;12.40;;
51927;SDS011;37953;52.806;18.270;2023-08-20T02:29:04;15.27;;;12.05;;
51927;SDS011;37953;52.806;18.270;2023-08-20T02:31:31;19.52;;;13.27;;
51927;SDS011;37953;52.806;18.270;2023-08-20T02:33:57;25.10;;;13.27;;
51927;SDS011;37953;52.806;18.270;2023-08-20T02:36:22;20.25;;;13.45;;
51927;SDS011;37953;52.806;18.270;2023-08-20T02:38:49;20.30;;;13.10;;
51927;SDS011;37953;52.806;18.270;2023-08-20T02:41:15;20.42;;;13.40;;
51927;SDS011;37953;52.806;18.270;2023-08-20T02:43:41;19.80;;;12.98;;
51927;SDS011;37953;52.806;18.270;2023-08-20T02:46:07;24.42;;;13.30;;
51927;SDS011;37953;52.806;18.270;2023-08-20T02:48:33;21.95;;;13.73;;
51927;SDS011;37953;52.806;18.270;2023-08-20T02:50:59;19.27;;;13.30;;
51927;SDS011;37953;52.806;18.270;2023-08-20T02:53:25;21.25;;;13.43;;
51927;SDS011;37953;52.806;18.270;2023-08-20T02:55:51;18.38;;;13.77;;
51927;SDS011;37953;52.806;18.270;2023-08-20T02:58:17;19.58;;;13.60;;
51927;SDS011;37953;52.806;18.270;2023-08-20T03:00:43;17.90;;;13.43;;
51927;SDS011;37953;52.806;18.270;2023-08-20T03:03:10;21.42;;;14.40;;
51927;SDS011;37953;52.806;18.270;2023-08-20T03:05:37;21.30;;;13.73;;
51927;SDS011;37953;52.806;18.270;2023-08-20T03:08:04;18.92;;;13.60;;
51927;SDS011;37953;52.806;18.270;2023-08-20T03:10:30;20.35;;;13.82;;
51927;SDS011;37953;52.806;18.270;2023-08-20T03:13:03;21.23;;;15.45;;
51927;SDS011;37953;52.806;18.270;2023-08-20T03:15:29;21.23;;;14.82;;
51927;SDS011;37953;52.806;18.270;2023-08-20T03:17:59;23.95;;;15.55;;
51927;SDS011;37953;52.806;18.270;2023-08-20T03:20:25;19.83;;;15.18;;
51927;SDS011;37953;52.806;18.270;2023-08-20T03:22:51;19.88;;;15.15;;
51927;SDS011;37953;52.806;18.270;2023-08-20T03:25:17;22.30;;;16.25;;
51927;SDS011;37953;52.806;18.270;2023-08-20T03:27:43;20.00;;;16.25;;
51927;SDS011;37953;52.806;18.270;2023-08-20T03:30:09;23.38;;;16.42;;
51927;SDS011;37953;52.806;18.270;2023-08-20T03:32:35;21.83;;;15.77;;
51927;SDS011;37953;52.806;18.270;2023-08-20T03:35:01;21.85;;;15.65;;
51927;SDS011;37953;52.806;18.270;2023-08-20T03:37:28;22.33;;;16.13;;
51927;SDS011;37953;52.806;18.270;2023-08-20T03:39:54;19.63;;;16.13;;
51927;SDS011;37953;52.806;18.270;2023-08-20T03:42:20;21.30;;;16.25;;
51927;SDS011;37953;52.806;18.270;2023-08-20T03:44:46;22.60;;;16.80;;
51927;SDS011;37953;52.806;18.270;2023-08-20T03:47:12;21.52;;;16.25;;
51927;SDS011;37953;52.806;18.270;2023-08-20T03:49:38;22.58;;;16.23;;
51927;SDS011;37953;52.806;18.270;2023-08-20T03:52:04;22.02;;;16.33;;
51927;SDS011;37953;52.806;18.270;2023-08-20T03:54:32;23.10;;;16.00;;
51927;SDS011;37953;52.806;18.270;2023-08-20T03:56:59;19.83;;;15.93;;
51927;SDS011;37953;52.806;18.270;2023-08-20T03:59:25;20.17;;;14.98;;
51927;SDS011;37953;52.806;18.270;2023-08-20T04:01:51;20.85;;;15.68;;
51927;SDS011;37953;52.806;18.270;2023-08-20T04:04:17;20.67;;;16.40;;
51927;SDS011;37953;52.806;18.270;2023-08-20T04:06:43;22.38;;;16.20;;
51927;SDS011;37953;52.806;18.270;2023-08-20T04:09:09;21.98;;;15.52;;
51927;SDS011;37953;52.806;18.270;2023-08-20T04:11:35;24.85;;;15.50;;
51927;SDS011;37953;52.806;18.270;2023-08-20T04:14:01;24.92;;;16.25;;
51927;SDS011;37953;52.806;18.270;2023-08-20T04:16:28;24.45;;;15.63;;
51927;SDS011;37953;52.806;18.270;2023-08-20T04:18:55;20.85;;;14.80;;
51927;SDS011;37953;52.806;18.270;2023-08-20T04:21:21;17.48;;;14.73;;
51927;SDS011;37953;52.806;18.270;2023-08-20T04:23:50;22.58;;;15.70;;
51927;SDS011;37953;52.806;18.270;2023-08-20T04:26:16;17.63;;;14.65;;
51927;SDS011;37953;52.806;18.270;2023-08-20T04:28:42;19.45;;;15.02;;
51927;SDS011;37953;52.806;18.270;2023-08-20T04:31:08;22.77;;;15.13;;
51927;SDS011;37953;52.806;18.270;2023-08-20T04:33:34;16.33;;;14.18;;
51927;SDS011;37953;52.806;18.270;2023-08-20T04:36:00;20.30;;;14.48;;
51927;SDS011;37953;52.806;18.270;2023-08-20T04:38:26;18.95;;;14.65;;
51927;SDS011;37953;52.806;18.270;2023-08-20T04:40:52;19.38;;;14.30;;
51927;SDS011;37953;52.806;18.270;2023-08-20T04:43:18;19.83;;;14.55;;
51927;SDS011;37953;52.806;18.270;2023-08-20T04:45:44;17.80;;;14.15;;
51927;SDS011;37953;52.806;18.270;2023-08-20T04:48:10;18.90;;;14.25;;
51927;SDS011;37953;52.806;18.270;2023-08-20T04:50:36;19.77;;;13.73;;
51927;SDS011;37953;52.806;18.270;2023-08-20T04:53:02;20.63;;;14.55;;
51927;SDS011;37953;52.806;18.270;2023-08-20T04:55:28;23.17;;;13.63;;
51927;SDS011;37953;52.806;18.270;2023-08-20T04:57:54;19.63;;;13.10;;
51927;SDS011;37953;52.806;18.270;2023-08-20T05:00:21;15.68;;;13.57;;
51927;SDS011;37953;52.806;18.270;2023-08-20T05:02:47;20.48;;;13.45;;
51927;SDS011;37953;52.806;18.270;2023-08-20T05:05:13;18.83;;;13.32;;
51927;SDS011;37953;52.806;18.270;2023-08-20T05:07:40;19.73;;;12.95;;
51927;SDS011;37953;52.806;18.270;2023-08-20T05:10:07;18.17;;;12.52;;
51927;SDS011;37953;52.806;18.270;2023-08-20T05:12:34;14.95;;;12.20;;
51927;SDS011;37953;52.806;18.270;2023-08-20T05:15:00;16.73;;;12.98;;
51927;SDS011;37953;52.806;18.270;2023-08-20T05:17:26;21.40;;;12.05;;
51927;SDS011;37953;52.806;18.270;2023-08-20T05:19:52;16.55;;;11.68;;
51927;SDS011;37953;52.806;18.270;2023-08-20T05:22:18;17.98;;;12.63;;
51927;SDS011;37953;52.806;18.270;2023-08-20T05:24:44;21.48;;;12.45;;
51927;SDS011;37953;52.806;18.270;2023-08-20T05:27:13;16.98;;;12.40;;
51927;SDS011;37953;52.806;18.270;2023-08-20T05:29:42;17.45;;;13.02;;
51927;SDS011;37953;52.806;18.270;2023-08-20T05:32:08;16.65;;;12.18;;
51927;SDS011;37953;52.806;18.270;2023-08-20T05:34:35;17.98;;;12.77;;
51927;SDS011;37953;52.806;18.270;2023-08-20T05:37:13;18.95;;;11.75;;
51927;SDS011;37953;52.806;18.270;2023-08-20T05:39:43;16.65;;;11.75;;
51927;SDS011;37953;52.806;18.270;2023-08-20T05:42:09;17.33;;;12.52;;
51927;SDS011;37953;52.806;18.270;2023-08-20T05:44:36;15.30;;;11.75;;
51927;SDS011;37953;52.806;18.270;2023-08-20T05:47:02;18.92;;;11.75;;
51927;SDS011;37953;52.806;18.270;2023-08-20T05:49:28;18.08;;;12.45;;
51927;SDS011;37953;52.806;18.270;2023-08-20T05:51:54;18.25;;;11.38;;
51927;SDS011;37953;52.806;18.270;2023-08-20T05:54:20;18.52;;;12.50;;
51927;SDS011;37953;52.806;18.270;2023-08-20T05:56:46;18.95;;;12.20;;
51927;SDS011;37953;52.806;18.270;2023-08-20T05:59:12;15.63;;;10.93;;
51927;SDS011;37953;52.806;18.270;2023-08-20T06:01:37;15.10;;;11.43;;
51927;SDS011;37953;52.806;18.270;2023-08-20T06:04:03;15.02;;;11.30;;
51927;SDS011;37953;52.806;18.270;2023-08-20T06:06:30;13.52;;;10.35;;
51927;SDS011;37953;52.806;18.270;2023-08-20T06:08:56;13.88;;;10.98;;
51927;SDS011;37953;52.806;18.270;2023-08-20T06:11:22;17.17;;;10.07;;
51927;SDS011;37953;52.806;18.270;2023-08-20T06:13:48;15.25;;;10.52;;
51927;SDS011;37953;52.806;18.270;2023-08-20T06:16:14;14.90;;;11.15;;
51927;SDS011;37953;52.806;18.270;2023-08-20T06:18:40;16.30;;;10.95;;
51927;SDS011;37953;52.806;18.270;2023-08-20T06:21:05;13.63;;;9.88;;
51927;SDS011;37953;52.806;18.270;2023-08-20T06:23:31;14.57;;;10.40;;
51927;SDS011;37953;52.806;18.270;2023-08-20T06:25:57;15.10;;;10.00;;
51927;SDS011;37953;52.806;18.270;2023-08-20T06:28:23;15.65;;;10.60;;
51927;SDS011;37953;52.806;18.270;2023-08-20T06:30:49;13.13;;;9.88;;
51927;SDS011;37953;52.806;18.270;2023-08-20T06:33:15;11.60;;;9.50;;
51927;SDS011;37953;52.806;18.270;2023-08-20T06:35:41;16.38;;;10.20;;
51927;SDS011;37953;52.806;18.270;2023-08-20T06:38:07;14.10;;;10.20;;
51927;SDS011;37953;52.806;18.270;2023-08-20T06:40:33;14.85;;;10.63;;
51927;SDS011;37953;52.806;18.270;2023-08-20T06:43:00;11.85;;;9.45;;
51927;SDS011;37953;52.806;18.270;2023-08-20T06:45:25;12.52;;;9.50;;
51927;SDS011;37953;52.806;18.270;2023-08-20T06:47:51;16.10;;;10.05;;
51927;SDS011;37953;52.806;18.270;2023-08-20T06:50:17;15.32;;;9.63;;
51927;SDS011;37953;52.806;18.270;2023-08-20T06:52:43;10.27;;;8.68;;
51927;SDS011;37953;52.806;18.270;2023-08-20T06:55:09;12.73;;;9.30;;
51927;SDS011;37953;52.806;18.270;2023-08-20T06:57:35;14.23;;;9.00;;
51927;SDS011;37953;52.806;18.270;2023-08-20T07:00:01;12.45;;;9.02;;
51927;SDS011;37953;52.806;18.270;2023-08-20T07:02:30;16.73;;;9.05;;
51927;SDS011;37953;52.806;18.270;2023-08-20T07:04:56;10.73;;;8.45;;
51927;SDS011;37953;52.806;18.270;2023-08-20T07:07:22;13.40;;;8.60;;
51927;SDS011;37953;52.806;18.270;2023-08-20T07:09:47;13.27;;;8.65;;
51927;SDS011;37953;52.806;18.270;2023-08-20T07:12:14;12.05;;;9.20;;
51927;SDS011;37953;52.806;18.270;2023-08-20T07:14:39;12.88;;;8.95;;
51927;SDS011;37953;52.806;18.270;2023-08-20T07:17:05;10.80;;;8.35;;
51927;SDS011;37953;52.806;18.270;2023-08-20T07:19:31;10.35;;;8.43;;
51927;SDS011;37953;52.806;18.270;2023-08-20T07:21:57;11.52;;;8.60;;
51927;SDS011;37953;52.806;18.270;2023-08-20T07:24:23;10.70;;;8.25;;
51927;SDS011;37953;52.806;18.270;2023-08-20T07:26:51;10.63;;;8.15;;
51927;SDS011;37953;52.806;18.270;2023-08-20T07:29:18;10.88;;;8.07;;
51927;SDS011;37953;52.806;18.270;2023-08-20T07:31:44;10.50;;;8.70;;
51927;SDS011;37953;52.806;18.270;2023-08-20T07:34:10;12.20;;;8.45;;
51927;SDS011;37953;52.806;18.270;2023-08-20T07:36:36;14.73;;;8.43;;
51927;SDS011;37953;52.806;18.270;2023-08-20T07:39:02;8.95;;;7.68;;
51927;SDS011;37953;52.806;18.270;2023-08-20T07:41:28;12.18;;;7.72;;
51927;SDS011;37953;52.806;18.270;2023-08-20T07:43:54;11.43;;;8.13;;
51927;SDS011;37953;52.806;18.270;2023-08-20T07:46:20;9.90;;;7.93;;
51927;SDS011;37953;52.806;18.270;2023-08-20T07:48:46;11.98;;;7.85;;
51927;SDS011;37953;52.806;18.270;2023-08-20T07:51:12;10.55;;;7.10;;
51927;SDS011;37953;52.806;18.270;2023-08-20T07:53:38;9.07;;;7.20;;
51927;SDS011;37953;52.806;18.270;2023-08-20T07:56:04;10.63;;;6.97;;
51927;SDS011;37953;52.806;18.270;2023-08-20T07:58:30;9.18;;;7.18;;
51927;SDS011;37953;52.806;18.270;2023-08-20T08:00:57;12.38;;;7.03;;
51927;SDS011;37953;52.806;18.270;2023-08-20T08:03:24;9.18;;;6.65;;
51927;SDS011;37953;52.806;18.270;2023-08-20T08:05:56;10.65;;;6.80;;
51927;SDS011;37953;52.806;18.270;2023-08-20T08:08:22;9.52;;;6.50;;
51927;SDS011;37953;52.806;18.270;2023-08-20T08:10:48;9.68;;;7.20;;
51927;SDS011;37953;52.806;18.270;2023-08-20T08:13:15;11.20;;;6.82;;
51927;SDS011;37953;52.806;18.270;2023-08-20T08:15:43;9.52;;;6.55;;
51927;SDS011;37953;52.806;18.270;2023-08-20T08:18:16;9.60;;;7.03;;
51927;SDS011;37953;52.806;18.270;2023-08-20T08:20:42;9.75;;;6.85;;
51927;SDS011;37953;52.806;18.270;2023-08-20T08:23:08;9.57;;;7.00;;
51927;SDS011;37953;52.806;18.270;2023-08-20T08:25:34;8.18;;;6.47;;
51927;SDS011;37953;52.806;18.270;2023-08-20T08:28:00;9.98;;;7.10;;
51927;SDS011;37953;52.806;18.270;2023-08-20T08:30:26;10.43;;;6.47;;
51927;SDS011;37953;52.806;18.270;2023-08-20T08:32:53;9.65;;;6.47;;
51927;SDS011;37953;52.806;18.270;2023-08-20T08:35:20;10.77;;;6.75;;
51927;SDS011;37953;52.806;18.270;2023-08-20T08:37:46;7.00;;;6.30;;
51927;SDS011;37953;52.806;18.270;2023-08-20T08:40:12;11.35;;;6.82;;
51927;SDS011;37953;52.806;18.270;2023-08-20T08:42:38;11.00;;;6.35;;
51927;SDS011;37953;52.806;18.270;2023-08-20T08:45:09;8.48;;;6.40;;
51927;SDS011;37953;52.806;18.270;2023-08-20T08:47:36;7.30;;;6.32;;
51927;SDS011;37953;52.806;18.270;2023-08-20T08:50:05;9.68;;;6.38;;
51927;SDS011;37953;52.806;18.270;2023-08-20T08:52:31;10.32;;;6.13;;
51927;SDS011;37953;52.806;18.270;2023-08-20T08:54:58;8.05;;;6.57;;
51927;SDS011;37953;52.806;18.270;2023-08-20T08:57:24;7.13;;;6.18;;
51927;SDS011;37953;52.806;18.270;2023-08-20T08:59:50;9.45;;;6.38;;
51927;SDS011;37953;52.806;18.270;2023-08-20T09:02:17;7.65;;;6.10;;
51927;SDS011;37953;52.806;18.270;2023-08-20T09:04:50;10.32;;;6.50;;
51927;SDS011;37953;52.806;18.270;2023-08-20T09:07:17;8.13;;;6.00;;
51927;SDS011;37953;52.806;18.270;2023-08-20T09:09:44;10.15;;;6.80;;
51927;SDS011;37953;52.806;18.270;2023-08-20T09:14:42;9.68;;;6.35;;
51927;SDS011;37953;52.806;18.270;2023-08-20T09:17:10;7.18;;;5.90;;
51927;SDS011;37953;52.806;18.270;2023-08-20T09:19:37;8.35;;;6.22;;
51927;SDS011;37953;52.806;18.270;2023-08-20T09:22:03;10.98;;;6.53;;
51927;SDS011;37953;52.806;18.270;2023-08-20T09:24:33;14.55;;;6.57;;
51927;SDS011;37953;52.806;18.270;2023-08-20T09:27:04;9.10;;;6.22;;
51927;SDS011;37953;52.806;18.270;2023-08-20T09:29:32;9.10;;;6.35;;
51927;SDS011;37953;52.806;18.270;2023-08-20T09:32:02;7.50;;;6.20;;
51927;SDS011;37953;52.806;18.270;2023-08-20T09:34:37;11.65;;;6.80;;
51927;SDS011;37953;52.806;18.270;2023-08-20T09:37:08;7.20;;;5.75;;
51927;SDS011;37953;52.806;18.270;2023-08-20T09:39:35;15.00;;;7.03;;
51927;SDS011;37953;52.806;18.270;2023-08-20T09:42:01;16.45;;;7.55;;
51927;SDS011;37953;52.806;18.270;2023-08-20T09:44:32;16.40;;;7.10;;
51927;SDS011;37953;52.806;18.270;2023-08-20T09:47:05;8.40;;;6.30;;
51927;SDS011;37953;52.806;18.270;2023-08-20T09:49:41;10.18;;;6.57;;
51927;SDS011;37953;52.806;18.270;2023-08-20T09:52:12;9.07;;;6.53;;
51927;SDS011;37953;52.806;18.270;2023-08-20T09:57:35;9.15;;;6.32;;
51927;SDS011;37953;52.806;18.270;2023-08-20T10:00:03;8.45;;;6.13;;
51927;SDS011;37953;52.806;18.270;2023-08-20T10:02:37;10.15;;;6.28;;
51927;SDS011;37953;52.806;18.270;2023-08-20T10:05:07;7.35;;;5.93;;
51927;SDS011;37953;52.806;18.270;2023-08-20T10:07:34;8.85;;;6.60;;
51927;SDS011;37953;52.806;18.270;2023-08-20T10:10:03;10.05;;;6.47;;
51927;SDS011;37953;52.806;18.270;2023-08-20T10:12:35;7.93;;;6.18;;
51927;SDS011;37953;52.806;18.270;2023-08-20T10:15:04;9.05;;;6.57;;
51927;SDS011;37953;52.806;18.270;2023-08-20T10:17:33;9.00;;;6.30;;
51927;SDS011;37953;52.806;18.270;2023-08-20T10:20:14;8.07;;;6.43;;
51927;SDS011;37953;52.806;18.270;2023-08-20T10:22:44;9.23;;;6.78;;
51927;SDS011;37953;52.806;18.270;2023-08-20T10:25:23;8.63;;;6.20;;
51927;SDS011;37953;52.806;18.270;2023-08-20T10:28:10;10.57;;;6.20;;
51927;SDS011;37953;52.806;18.270;2023-08-20T10:33:47;8.90;;;6.38;;
51927;SDS011;37953;52.806;18.270;2023-08-20T10:36:22;10.30;;;6.63;;
51927;SDS011;37953;52.806;18.270;2023-08-20T10:38:56;10.63;;;6.50;;
51927;SDS011;37953;52.806;18.270;2023-08-20T10:41:37;8.82;;;6.20;;
51927;SDS011;37953;52.806;18.270;2023-08-20T10:44:03;7.70;;;5.95;;
51927;SDS011;37953;52.806;18.270;2023-08-20T10:46:30;9.20;;;6.03;;
51927;SDS011;37953;52.806;18.270;2023-08-20T10:48:56;10.63;;;6.57;;
51927;SDS011;37953;52.806;18.270;2023-08-20T10:59:27;8.13;;;5.65;;
51927;SDS011;37953;52.806;18.270;2023-08-20T11:01:56;6.90;;;5.95;;
51927;SDS011;37953;52.806;18.270;2023-08-20T11:04:23;10.40;;;6.28;;
51927;SDS011;37953;52.806;18.270;2023-08-20T11:06:59;9.00;;;5.72;;
51927;SDS011;37953;52.806;18.270;2023-08-20T11:09:26;7.90;;;5.93;;
51927;SDS011;37953;52.806;18.270;2023-08-20T11:11:58;12.63;;;6.30;;
51927;SDS011;37953;52.806;18.270;2023-08-20T11:14:24;9.02;;;6.20;;
51927;SDS011;37953;52.806;18.270;2023-08-20T11:16:51;8.38;;;6.40;;
51927;SDS011;37953;52.806;18.270;2023-08-20T11:19:20;12.18;;;6.70;;
51927;SDS011;37953;52.806;18.270;2023-08-20T11:21:47;9.18;;;6.38;;
51927;SDS011;37953;52.806;18.270;2023-08-20T11:24:16;11.05;;;6.65;;
51927;SDS011;37953;52.806;18.270;2023-08-20T11:26:48;9.15;;;6.30;;
51927;SDS011;37953;52.806;18.270;2023-08-20T11:29:15;10.35;;;6.13;;
51927;SDS011;37953;52.806;18.270;2023-08-20T11:31:56;8.85;;;6.68;;
51927;SDS011;37953;52.806;18.270;2023-08-20T11:34:23;8.50;;;6.10;;
51927;SDS011;37953;52.806;18.270;2023-08-20T11:36:50;11.65;;;5.90;;
51927;SDS011;37953;52.806;18.270;2023-08-20T11:39:17;9.30;;;6.35;;
51927;SDS011;37953;52.806;18.270;2023-08-20T11:41:43;10.00;;;6.60;;
51927;SDS011;37953;52.806;18.270;2023-08-20T11:44:09;8.70;;;6.10;;
51927;SDS011;37953;52.806;18.270;2023-08-20T11:46:42;9.35;;;5.97;;
51927;SDS011;37953;52.806;18.270;2023-08-20T11:49:30;7.82;;;5.80;;
51927;SDS011;37953;52.806;18.270;2023-08-20T11:51:57;10.43;;;6.28;;
51927;SDS011;37953;52.806;18.270;2023-08-20T11:54:23;7.35;;;6.00;;
51927;SDS011;37953;52.806;18.270;2023-08-20T11:56:51;8.25;;;5.97;;
51927;SDS011;37953;52.806;18.270;2023-08-20T11:59:20;7.88;;;6.03;;
51927;SDS011;37953;52.806;18.270;2023-08-20T12:01:55;8.93;;;5.72;;
51927;SDS011;37953;52.806;18.270;2023-08-20T12:04:23;7.93;;;5.65;;
51927;SDS011;37953;52.806;18.270;2023-08-20T12:07:01;10.07;;;5.45;;
51927;SDS011;37953;52.806;18.270;2023-08-20T12:09:33;8.57;;;5.63;;
51927;SDS011;37953;52.806;18.270;2023-08-20T12:11:59;6.80;;;5.53;;
51927;SDS011;37953;52.806;18.270;2023-08-20T12:14:25;8.98;;;6.43;;
51927;SDS011;37953;52.806;18.270;2023-08-20T12:16:53;8.30;;;5.75;;
51927;SDS011;37953;52.806;18.270;2023-08-20T12:19:25;6.90;;;5.80;;
51927;SDS011;37953;52.806;18.270;2023-08-20T12:21:52;10.00;;;5.82;;
51927;SDS011;37953;52.806;18.270;2023-08-20T12:24:18;6.93;;;5.93;;
51927;SDS011;37953;52.806;18.270;2023-08-20T12:26:47;8.38;;;5.95;;
51927;SDS011;37953;52.806;18.270;2023-08-20T12:29:13;8.15;;;6.03;;
51927;SDS011;37953;52.806;18.270;2023-08-20T12:31:40;8.05;;;6.15;;
51927;SDS011;37953;52.806;18.270;2023-08-20T12:34:06;8.63;;;6.25;;
51927;SDS011;37953;52.806;18.270;2023-08-20T12:36:33;10.90;;;6.05;;
51927;SDS011;37953;52.806;18.270;2023-08-20T12:38:59;6.45;;;4.75;;
51927;SDS011;37953;52.806;18.270;2023-08-20T12:41:25;7.50;;;5.63;;
51927;SDS011;37953;52.806;18.270;2023-08-20T12:43:51;7.88;;;5.68;;
51927;SDS011;37953;52.806;18.270;2023-08-20T12:46:17;7.57;;;5.97;;
51927;SDS011;37953;52.806;18.270;2023-08-20T12:48:43;9.30;;;6.05;;
51927;SDS011;37953;52.806;18.270;2023-08-20T12:51:10;12.93;;;6.18;;
51927;SDS011;37953;52.806;18.270;2023-08-20T12:53:39;8.75;;;6.07;;
51927;SDS011;37953;52.806;18.270;2023-08-20T12:56:11;8.38;;;5.88;;
51927;SDS011;37953;52.806;18.270;2023-08-20T12:58:37;6.45;;;5.57;;
51927;SDS011;37953;52.806;18.270;2023-08-20T13:01:03;6.15;;;5.50;;
51927;SDS011;37953;52.806;18.270;2023-08-20T13:03:29;8.40;;;5.50;;
51927;SDS011;37953;52.806;18.270;2023-08-20T13:05:55;7.60;;;5.85;;
51927;SDS011;37953;52.806;18.270;2023-08-20T13:08:23;6.53;;;5.28;;
51927;SDS011;37953;52.806;18.270;2023-08-20T13:10:52;8.13;;;6.03;;
51927;SDS011;37953;52.806;18.270;2023-08-20T13:13:21;10.98;;;5.88;;
51927;SDS011;37953;52.806;18.270;2023-08-20T13:15:48;11.27;;;5.95;;
51927;SDS011;37953;52.806;18.270;2023-08-20T13:18:20;8.07;;;5.78;;
51927;SDS011;37953;52.806;18.270;2023-08-20T13:20:51;11.77;;;6.57;;
51927;SDS011;37953;52.806;18.270;2023-08-20T13:23:22;9.52;;;6.25;;
51927;SDS011;37953;52.806;18.270;2023-08-20T13:25:49;9.70;;;6.18;;
51927;SDS011;37953;52.806;18.270;2023-08-20T13:28:15;8.88;;;5.60;;
51927;SDS011;37953;52.806;18.270;2023-08-20T13:30:41;13.23;;;5.72;;
51927;SDS011;37953;52.806;18.270;2023-08-20T13:33:07;9.50;;;5.45;;
51927;SDS011;37953;52.806;18.270;2023-08-20T13:35:33;8.02;;;5.47;;
51927;SDS011;37953;52.806;18.270;2023-08-20T13:37:59;9.60;;;5.35;;
51927;SDS011;37953;52.806;18.270;2023-08-20T13:40:25;7.00;;;5.60;;
51927;SDS011;37953;52.806;18.270;2023-08-20T13:42:51;9.73;;;5.85;;
51927;SDS011;37953;52.806;18.270;2023-08-20T13:45:17;6.93;;;5.10;;
51927;SDS011;37953;52.806;18.270;2023-08-20T13:47:43;8.00;;;5.38;;
51927;SDS011;37953;52.806;18.270;2023-08-20T13:50:10;7.78;;;5.50;;
51927;SDS011;37953;52.806;18.270;2023-08-20T13:52:36;6.65;;;4.88;;
51927;SDS011;37953;52.806;18.270;2023-08-20T13:55:02;7.20;;;4.82;;
51927;SDS011;37953;52.806;18.270;2023-08-20T13:57:29;5.05;;;4.53;;
51927;SDS011;37953;52.806;18.270;2023-08-20T13:59:55;7.38;;;4.53;;
51927;SDS011;37953;52.806;18.270;2023-08-20T14:02:20;8.75;;;4.78;;
51927;SDS011;37953;52.806;18.270;2023-08-20T14:04:47;5.60;;;4.75;;
51927;SDS011;37953;52.806;18.270;2023-08-20T14:07:13;6.63;;;4.80;;
51927;SDS011;37953;52.806;18.270;2023-08-20T14:09:39;7.18;;;4.72;;
51927;SDS011;37953;52.806;18.270;2023-08-20T14:12:06;6.97;;;5.00;;
51927;SDS011;37953;52.806;18.270;2023-08-20T14:14:32;6.55;;;4.93;;
51927;SDS011;37953;52.806;18.270;2023-08-20T14:16:58;7.07;;;5.10;;
51927;SDS011;37953;52.806;18.270;2023-08-20T14:19:31;6.78;;;4.75;;
51927;SDS011;37953;52.806;18.270;2023-08-20T14:21:57;6.75;;;4.95;;
51927;SDS011;37953;52.806;18.270;2023-08-20T14:24:23;6.70;;;4.80;;
51927;SDS011;37953;52.806;18.270;2023-08-20T14:26:49;6.68;;;4.35;;
51927;SDS011;37953;52.806;18.270;2023-08-20T14:29:15;8.38;;;4.68;;
51927;SDS011;37953;52.806;18.270;2023-08-20T14:31:41;10.10;;;4.60;;
51927;SDS011;37953;52.806;18.270;2023-08-20T14:34:07;6.20;;;4.47;;
51927;SDS011;37953;52.806;18.270;2023-08-20T14:36:33;6.82;;;4.90;;
51927;SDS011;37953;52.806;18.270;2023-08-20T14:38:59;7.47;;;4.63;;
51927;SDS011;37953;52.806;18.270;2023-08-20T14:41:25;15.38;;;5.75;;
51927;SDS011;37953;52.806;18.270;2023-08-20T14:43:51;14.50;;;5.00;;
51927;SDS011;37953;52.806;18.270;2023-08-20T14:46:17;8.02;;;5.00;;